Terminal Aerodrome Forecast
Issued by NWS Newport/Morehead City, NC

Home | Current Version | Previous Version | Text Only | Print | Product List | Glossary Off
Versions: 1 2 3 4 5 6 7 8 9 10 11 12 13 14

000
FTUS42 KMHX 231700
TAFEWN
TAF
KEWN 231720Z 2318/2418 04003KT P6SM -RA OVC110
     FM232100 12007KT 4SM -RA BKN030
     FM240000 13015G20KT 3SM RA BKN020
     FM240400 19010G15KT 3SM RA BKN020
      TEMPO 2404/2408 2SM TSRA OVC020CB
     FM240800 20010G15KT 5SM SHRA BR OVC030
     FM241500 21010G15KT P6SM OVC040=

USA.gov is the U.S. government's official web portal to all federal, state and local government web resources and services.